Aviation Digital Data Service (ADDS)

Output produced by METARs form (1159 UTC 22 March 2019)
found at http://www.aviationweather.gov/metar/data/
 
Forecast for: VTSF (NAKHON SI THAMMA, TH)
Text: TAF VTSF 221100Z 2212/2312 VRB02KT 9999 FEW020
Forecast period: 1200 UTC 22 March 2019 to 0400 UTC 23 March 2019
Forecast type: FROM: standard forecast or significant change
Winds: variable direction winds at 2 MPH (2 knots; 1.0 m/s)
Visibility: 6 or more miles 10+ km)
Ceiling: at least 12,000 feet AGL
Clouds: few clouds at 2000 feet AGL
Weather: no significant weather forecast for this period
Text: BECMG 2304/2306 06010KT
Forecast period: 0400 to 1200 UTC 23 March 2019
Forecast type: BECOMING: Conditions expected to become as follows by 0600 UTC 23 March 2019
Winds: from the ENE (60 degrees) at 12 MPH (10 knots; 5.1 m/s)
Visibility: 6 or more miles 10+ km)
Ceiling: at least 12,000 feet AGL
Clouds: few clouds at 2000 feet AGL
Weather: no significant weather forecast for this period